Curlew, Washington
Current Conditions -  °F | °C
As of 6:02 AM on Sunday 25 Jan 2015 (Local Time) from KOMK Reporting Station
Moderate Fog Moderate Fog  
Wind Chill: 34°   Ceiling: 500
Heat Index: 34°   Visibility: 0.5mi
Dew Point: 33°   Wind: 0mph
Humidity: 96%   Direction: NA
Pressure: 30.25"   Gusts: NA
Location:  48.89°N, 118.6°W
Report Text: KOMK 251402Z AUTO 00000KT 1/2SM FG VV005 01/01 A3025 RMK AO2 T00110006
Loading
Personal Weather Stations






























Interactive Weather Map New forecast layout! Learn more

10-Day Weather Forecast

Advertisements
Track Severe Weather on mobile